sensor_id;sensor_type;location;lat;lon;timestamp;temperature;humidity
24645;DHT22;12780;45.502;9.146;2022-09-01T00:00:49;24.50;99.90
24645;DHT22;12780;45.502;9.146;2022-09-01T00:03:19;24.60;99.90
24645;DHT22;12780;45.502;9.146;2022-09-01T00:05:48;24.50;99.90
24645;DHT22;12780;45.502;9.146;2022-09-01T00:08:19;24.50;99.90
24645;DHT22;12780;45.502;9.146;2022-09-01T00:10:45;24.50;99.90
24645;DHT22;12780;45.502;9.146;2022-09-01T00:13:11;24.40;99.90
24645;DHT22;12780;45.502;9.146;2022-09-01T00:15:36;24.40;99.90
24645;DHT22;12780;45.502;9.146;2022-09-01T00:18:03;24.40;99.90
24645;DHT22;12780;45.502;9.146;2022-09-01T00:20:29;24.40;99.90
24645;DHT22;12780;45.502;9.146;2022-09-01T00:22:54;24.40;99.90
24645;DHT22;12780;45.502;9.146;2022-09-01T00:25:20;24.40;99.90
24645;DHT22;12780;45.502;9.146;2022-09-01T00:27:48;24.40;99.90
24645;DHT22;12780;45.502;9.146;2022-09-01T00:30:14;24.50;99.90
24645;DHT22;12780;45.502;9.146;2022-09-01T00:32:40;24.50;99.90
24645;DHT22;12780;45.502;9.146;2022-09-01T00:35:15;24.50;99.90
24645;DHT22;12780;45.502;9.146;2022-09-01T00:37:41;24.40;99.90
24645;DHT22;12780;45.502;9.146;2022-09-01T00:40:08;24.40;99.90
24645;DHT22;12780;45.502;9.146;2022-09-01T00:42:36;24.40;99.90
24645;DHT22;12780;45.502;9.146;2022-09-01T00:45:02;24.40;99.90
24645;DHT22;12780;45.502;9.146;2022-09-01T00:47:28;24.40;99.90
24645;DHT22;12780;45.502;9.146;2022-09-01T00:49:54;24.40;99.90
24645;DHT22;12780;45.502;9.146;2022-09-01T00:52:34;24.40;99.90
24645;DHT22;12780;45.502;9.146;2022-09-01T00:55:26;24.50;99.90
24645;DHT22;12780;45.502;9.146;2022-09-01T00:57:53;24.50;99.90
24645;DHT22;12780;45.502;9.146;2022-09-01T01:00:23;24.60;99.90
24645;DHT22;12780;45.502;9.146;2022-09-01T01:02:50;24.50;99.90
24645;DHT22;12780;45.502;9.146;2022-09-01T01:05:24;24.60;99.90
24645;DHT22;12780;45.502;9.146;2022-09-01T01:07:53;24.50;99.90
24645;DHT22;12780;45.502;9.146;2022-09-01T01:10:20;24.60;99.90
24645;DHT22;12780;45.502;9.146;2022-09-01T01:12:48;24.50;99.90
24645;DHT22;12780;45.502;9.146;2022-09-01T01:15:17;24.50;99.90
24645;DHT22;12780;45.502;9.146;2022-09-01T01:17:43;24.40;99.90
24645;DHT22;12780;45.502;9.146;2022-09-01T01:20:11;24.40;99.90
24645;DHT22;12780;45.502;9.146;2022-09-01T01:23:12;24.50;99.90
24645;DHT22;12780;45.502;9.146;2022-09-01T01:25:45;24.50;99.90
24645;DHT22;12780;45.502;9.146;2022-09-01T01:30:47;24.50;99.90
24645;DHT22;12780;45.502;9.146;2022-09-01T01:33:20;24.50;99.90
24645;DHT22;12780;45.502;9.146;2022-09-01T01:35:47;24.50;99.90
24645;DHT22;12780;45.502;9.146;2022-09-01T01:38:13;24.40;99.90
24645;DHT22;12780;45.502;9.146;2022-09-01T01:40:39;24.50;99.90
24645;DHT22;12780;45.502;9.146;2022-09-01T01:43:06;24.40;99.90
24645;DHT22;12780;45.502;9.146;2022-09-01T01:45:32;24.50;99.90
24645;DHT22;12780;45.502;9.146;2022-09-01T01:47:58;24.50;99.90
24645;DHT22;12780;45.502;9.146;2022-09-01T01:50:33;24.50;99.90
24645;DHT22;12780;45.502;9.146;2022-09-01T01:53:01;24.50;99.90
24645;DHT22;12780;45.502;9.146;2022-09-01T01:55:28;24.50;99.90
24645;DHT22;12780;45.502;9.146;2022-09-01T01:57:55;24.50;99.90
24645;DHT22;12780;45.502;9.146;2022-09-01T02:00:25;24.40;99.90
24645;DHT22;12780;45.502;9.146;2022-09-01T02:02:52;24.50;99.90
24645;DHT22;12780;45.502;9.146;2022-09-01T02:05:27;24.40;99.90
24645;DHT22;12780;45.502;9.146;2022-09-01T02:07:56;24.40;99.90
24645;DHT22;12780;45.502;9.146;2022-09-01T02:10:29;24.40;99.90
24645;DHT22;12780;45.502;9.146;2022-09-01T02:12:56;24.30;99.90
24645;DHT22;12780;45.502;9.146;2022-09-01T02:15:38;24.30;99.90
24645;DHT22;12780;45.502;9.146;2022-09-01T02:18:16;24.30;99.90
24645;DHT22;12780;45.502;9.146;2022-09-01T02:20:46;24.30;99.90
24645;DHT22;12780;45.502;9.146;2022-09-01T02:23:14;24.20;99.90
24645;DHT22;12780;45.502;9.146;2022-09-01T02:25:44;24.10;99.90
24645;DHT22;12780;45.502;9.146;2022-09-01T02:28:14;24.20;99.90
24645;DHT22;12780;45.502;9.146;2022-09-01T02:30:45;24.20;99.90
24645;DHT22;12780;45.502;9.146;2022-09-01T02:33:13;24.20;99.90
24645;DHT22;12780;45.502;9.146;2022-09-01T02:36:13;24.20;99.90
24645;DHT22;12780;45.502;9.146;2022-09-01T02:38:41;24.10;99.90
24645;DHT22;12780;45.502;9.146;2022-09-01T02:41:09;24.00;99.90
24645;DHT22;12780;45.502;9.146;2022-09-01T02:43:36;24.00;99.90
24645;DHT22;12780;45.502;9.146;2022-09-01T02:46:03;24.00;99.90
24645;DHT22;12780;45.502;9.146;2022-09-01T02:48:36;24.00;99.90
24645;DHT22;12780;45.502;9.146;2022-09-01T02:51:15;23.90;99.90
24645;DHT22;12780;45.502;9.146;2022-09-01T02:53:43;23.90;99.90
24645;DHT22;12780;45.502;9.146;2022-09-01T02:56:10;23.90;99.90
24645;DHT22;12780;45.502;9.146;2022-09-01T02:58:39;23.80;99.90
24645;DHT22;12780;45.502;9.146;2022-09-01T03:01:19;23.80;99.90
24645;DHT22;12780;45.502;9.146;2022-09-01T03:03:49;23.80;99.90
24645;DHT22;12780;45.502;9.146;2022-09-01T03:06:16;23.80;99.90
24645;DHT22;12780;45.502;9.146;2022-09-01T03:08:44;23.70;99.90
24645;DHT22;12780;45.502;9.146;2022-09-01T03:11:10;23.70;99.90
24645;DHT22;12780;45.502;9.146;2022-09-01T03:13:38;23.60;99.90
24645;DHT22;12780;45.502;9.146;2022-09-01T03:16:05;23.50;99.90
24645;DHT22;12780;45.502;9.146;2022-09-01T03:18:30;23.50;99.90
24645;DHT22;12780;45.502;9.146;2022-09-01T03:20:56;23.40;99.90
24645;DHT22;12780;45.502;9.146;2022-09-01T03:23:22;23.40;99.90
24645;DHT22;12780;45.502;9.146;2022-09-01T03:25:50;23.40;99.90
24645;DHT22;12780;45.502;9.146;2022-09-01T03:28:16;23.50;99.90
24645;DHT22;12780;45.502;9.146;2022-09-01T03:30:48;23.50;99.90
24645;DHT22;12780;45.502;9.146;2022-09-01T03:33:16;23.50;99.90
24645;DHT22;12780;45.502;9.146;2022-09-01T03:35:43;23.50;99.90
24645;DHT22;12780;45.502;9.146;2022-09-01T03:38:09;23.50;99.90
24645;DHT22;12780;45.502;9.146;2022-09-01T03:40:37;23.40;99.90
24645;DHT22;12780;45.502;9.146;2022-09-01T03:43:05;23.40;99.90
24645;DHT22;12780;45.502;9.146;2022-09-01T03:45:34;23.40;99.90
24645;DHT22;12780;45.502;9.146;2022-09-01T03:48:04;23.40;99.90
24645;DHT22;12780;45.502;9.146;2022-09-01T03:50:35;23.50;99.90
24645;DHT22;12780;45.502;9.146;2022-09-01T03:53:06;23.60;99.90
24645;DHT22;12780;45.502;9.146;2022-09-01T03:55:34;23.60;99.90
24645;DHT22;12780;45.502;9.146;2022-09-01T03:58:09;23.60;99.90
24645;DHT22;12780;45.502;9.146;2022-09-01T04:00:40;23.60;99.90
24645;DHT22;12780;45.502;9.146;2022-09-01T04:03:08;23.60;99.90
24645;DHT22;12780;45.502;9.146;2022-09-01T04:05:35;23.70;99.90
24645;DHT22;12780;45.502;9.146;2022-09-01T04:08:04;23.70;99.90
24645;DHT22;12780;45.502;9.146;2022-09-01T04:10:32;23.70;99.90
24645;DHT22;12780;45.502;9.146;2022-09-01T04:12:59;23.70;99.90
24645;DHT22;12780;45.502;9.146;2022-09-01T04:15:26;23.60;99.90
24645;DHT22;12780;45.502;9.146;2022-09-01T04:17:52;23.50;99.90
24645;DHT22;12780;45.502;9.146;2022-09-01T04:20:46;23.30;99.90
24645;DHT22;12780;45.502;9.146;2022-09-01T04:23:27;23.20;99.90
24645;DHT22;12780;45.502;9.146;2022-09-01T04:26:00;23.20;99.90
24645;DHT22;12780;45.502;9.146;2022-09-01T04:28:35;23.10;99.90
24645;DHT22;12780;45.502;9.146;2022-09-01T04:31:05;23.10;99.90
24645;DHT22;12780;45.502;9.146;2022-09-01T04:33:37;23.10;99.90
24645;DHT22;12780;45.502;9.146;2022-09-01T04:36:20;23.10;99.90
24645;DHT22;12780;45.502;9.146;2022-09-01T04:38:53;23.10;99.90
24645;DHT22;12780;45.502;9.146;2022-09-01T04:41:28;23.10;99.90
24645;DHT22;12780;45.502;9.146;2022-09-01T04:44:00;23.10;99.90
24645;DHT22;12780;45.502;9.146;2022-09-01T04:46:39;23.10;99.90
24645;DHT22;12780;45.502;9.146;2022-09-01T04:49:07;23.20;99.90
24645;DHT22;12780;45.502;9.146;2022-09-01T04:51:38;23.30;99.90
24645;DHT22;12780;45.502;9.146;2022-09-01T04:54:04;23.30;99.90
24645;DHT22;12780;45.502;9.146;2022-09-01T04:56:33;23.40;99.90
24645;DHT22;12780;45.502;9.146;2022-09-01T04:59:00;23.50;99.90
24645;DHT22;12780;45.502;9.146;2022-09-01T05:01:26;23.50;99.90
24645;DHT22;12780;45.502;9.146;2022-09-01T05:03:52;23.60;99.90
24645;DHT22;12780;45.502;9.146;2022-09-01T05:06:27;23.60;99.90
24645;DHT22;12780;45.502;9.146;2022-09-01T05:08:54;23.70;99.90
24645;DHT22;12780;45.502;9.146;2022-09-01T05:11:22;23.70;99.90
24645;DHT22;12780;45.502;9.146;2022-09-01T05:13:49;23.70;99.90
24645;DHT22;12780;45.502;9.146;2022-09-01T05:16:17;23.70;99.90
24645;DHT22;12780;45.502;9.146;2022-09-01T05:18:46;23.70;99.90
24645;DHT22;12780;45.502;9.146;2022-09-01T05:21:15;23.80;99.90
24645;DHT22;12780;45.502;9.146;2022-09-01T05:23:43;23.80;99.90
24645;DHT22;12780;45.502;9.146;2022-09-01T05:26:15;23.90;99.90
24645;DHT22;12780;45.502;9.146;2022-09-01T05:28:50;23.90;99.90
24645;DHT22;12780;45.502;9.146;2022-09-01T05:31:21;24.00;99.90
24645;DHT22;12780;45.502;9.146;2022-09-01T05:33:48;23.90;99.90
24645;DHT22;12780;45.502;9.146;2022-09-01T05:36:18;23.70;99.90
24645;DHT22;12780;45.502;9.146;2022-09-01T05:38:45;23.60;99.90
24645;DHT22;12780;45.502;9.146;2022-09-01T05:41:13;23.60;99.90
24645;DHT22;12780;45.502;9.146;2022-09-01T05:43:41;23.60;99.90
24645;DHT22;12780;45.502;9.146;2022-09-01T05:46:12;23.50;99.90
24645;DHT22;12780;45.502;9.146;2022-09-01T05:48:44;23.50;99.90
24645;DHT22;12780;45.502;9.146;2022-09-01T05:51:11;23.40;99.90
24645;DHT22;12780;45.502;9.146;2022-09-01T05:53:39;23.40;99.90
24645;DHT22;12780;45.502;9.146;2022-09-01T05:56:07;23.40;99.90
24645;DHT22;12780;45.502;9.146;2022-09-01T05:58:34;23.40;99.90
24645;DHT22;12780;45.502;9.146;2022-09-01T06:01:01;23.50;99.90
24645;DHT22;12780;45.502;9.146;2022-09-01T06:03:27;23.50;99.90
24645;DHT22;12780;45.502;9.146;2022-09-01T06:05:54;23.50;99.90
24645;DHT22;12780;45.502;9.146;2022-09-01T06:08:22;23.50;99.90
24645;DHT22;12780;45.502;9.146;2022-09-01T06:10:48;23.50;99.90
24645;DHT22;12780;45.502;9.146;2022-09-01T06:13:15;23.50;99.90
24645;DHT22;12780;45.502;9.146;2022-09-01T06:15:41;23.60;99.90
24645;DHT22;12780;45.502;9.146;2022-09-01T06:18:10;23.60;99.90
24645;DHT22;12780;45.502;9.146;2022-09-01T06:20:43;23.70;99.90
24645;DHT22;12780;45.502;9.146;2022-09-01T06:23:10;23.70;99.90
24645;DHT22;12780;45.502;9.146;2022-09-01T06:25:40;23.80;99.90
24645;DHT22;12780;45.502;9.146;2022-09-01T06:28:16;23.90;99.90
24645;DHT22;12780;45.502;9.146;2022-09-01T06:30:43;24.00;99.90
24645;DHT22;12780;45.502;9.146;2022-09-01T06:33:10;24.00;99.90
24645;DHT22;12780;45.502;9.146;2022-09-01T06:35:38;24.10;99.90
24645;DHT22;12780;45.502;9.146;2022-09-01T06:38:05;24.20;99.90
24645;DHT22;12780;45.502;9.146;2022-09-01T06:40:34;24.30;99.90
24645;DHT22;12780;45.502;9.146;2022-09-01T06:43:03;24.40;99.90
24645;DHT22;12780;45.502;9.146;2022-09-01T06:45:33;24.40;99.90
24645;DHT22;12780;45.502;9.146;2022-09-01T06:47:59;24.40;99.90
24645;DHT22;12780;45.502;9.146;2022-09-01T06:50:25;24.40;99.90
24645;DHT22;12780;45.502;9.146;2022-09-01T06:52:52;24.40;99.90
24645;DHT22;12780;45.502;9.146;2022-09-01T06:55:26;24.50;99.90
24645;DHT22;12780;45.502;9.146;2022-09-01T06:57:56;24.60;99.90
24645;DHT22;12780;45.502;9.146;2022-09-01T07:00:22;24.60;99.90
24645;DHT22;12780;45.502;9.146;2022-09-01T07:02:53;24.70;99.90
24645;DHT22;12780;45.502;9.146;2022-09-01T07:05:19;24.70;99.90
24645;DHT22;12780;45.502;9.146;2022-09-01T07:07:47;24.70;99.90
24645;DHT22;12780;45.502;9.146;2022-09-01T07:10:17;24.70;99.90
24645;DHT22;12780;45.502;9.146;2022-09-01T07:12:45;24.80;99.90
24645;DHT22;12780;45.502;9.146;2022-09-01T07:15:12;24.80;99.90
24645;DHT22;12780;45.502;9.146;2022-09-01T07:17:48;24.80;99.90
24645;DHT22;12780;45.502;9.146;2022-09-01T07:20:15;24.80;99.90
24645;DHT22;12780;45.502;9.146;2022-09-01T07:22:41;24.80;99.90
24645;DHT22;12780;45.502;9.146;2022-09-01T07:25:07;24.90;99.90
24645;DHT22;12780;45.502;9.146;2022-09-01T07:27:37;25.00;99.90
24645;DHT22;12780;45.502;9.146;2022-09-01T07:30:04;25.00;99.90
24645;DHT22;12780;45.502;9.146;2022-09-01T07:32:35;25.10;99.90
24645;DHT22;12780;45.502;9.146;2022-09-01T07:35:02;25.00;99.90
24645;DHT22;12780;45.502;9.146;2022-09-01T07:37:33;25.10;99.90
24645;DHT22;12780;45.502;9.146;2022-09-01T07:40:04;25.10;99.90
24645;DHT22;12780;45.502;9.146;2022-09-01T07:42:31;25.20;99.90
24645;DHT22;12780;45.502;9.146;2022-09-01T07:44:56;25.20;99.90
24645;DHT22;12780;45.502;9.146;2022-09-01T07:47:23;25.20;99.90
24645;DHT22;12780;45.502;9.146;2022-09-01T07:49:49;25.20;99.90
24645;DHT22;12780;45.502;9.146;2022-09-01T07:52:15;25.40;99.90
24645;DHT22;12780;45.502;9.146;2022-09-01T07:54:42;25.40;99.90
24645;DHT22;12780;45.502;9.146;2022-09-01T07:57:07;25.50;99.90
24645;DHT22;12780;45.502;9.146;2022-09-01T07:59:33;25.60;99.90
24645;DHT22;12780;45.502;9.146;2022-09-01T08:02:00;25.70;99.90
24645;DHT22;12780;45.502;9.146;2022-09-01T08:04:29;25.80;99.90
24645;DHT22;12780;45.502;9.146;2022-09-01T08:06:56;26.00;99.90
24645;DHT22;12780;45.502;9.146;2022-09-01T08:09:22;26.20;99.90
24645;DHT22;12780;45.502;9.146;2022-09-01T08:11:47;26.30;99.90
24645;DHT22;12780;45.502;9.146;2022-09-01T08:14:13;26.30;99.90
24645;DHT22;12780;45.502;9.146;2022-09-01T08:16:38;26.40;99.90
24645;DHT22;12780;45.502;9.146;2022-09-01T08:19:04;26.50;99.90
24645;DHT22;12780;45.502;9.146;2022-09-01T08:21:30;26.40;99.90
24645;DHT22;12780;45.502;9.146;2022-09-01T08:23:55;26.50;99.90
24645;DHT22;12780;45.502;9.146;2022-09-01T08:26:23;26.50;99.90
24645;DHT22;12780;45.502;9.146;2022-09-01T08:28:50;26.50;99.90
24645;DHT22;12780;45.502;9.146;2022-09-01T08:31:17;26.60;99.90
24645;DHT22;12780;45.502;9.146;2022-09-01T08:33:44;26.60;99.90
24645;DHT22;12780;45.502;9.146;2022-09-01T08:36:12;26.50;99.90
24645;DHT22;12780;45.502;9.146;2022-09-01T08:38:39;26.50;99.90
24645;DHT22;12780;45.502;9.146;2022-09-01T08:41:16;26.50;99.90
24645;DHT22;12780;45.502;9.146;2022-09-01T08:46:37;26.30;99.90
24645;DHT22;12780;45.502;9.146;2022-09-01T08:49:14;26.20;99.90
24645;DHT22;12780;45.502;9.146;2022-09-01T08:57:13;26.20;99.90
24645;DHT22;12780;45.502;9.146;2022-09-01T08:59:39;26.30;99.90
24645;DHT22;12780;45.502;9.146;2022-09-01T09:10:25;26.60;99.90
24645;DHT22;12780;45.502;9.146;2022-09-01T09:16:00;26.90;99.90
24645;DHT22;12780;45.502;9.146;2022-09-01T09:18:43;26.90;99.90
24645;DHT22;12780;45.502;9.146;2022-09-01T09:21:20;27.00;99.90
24645;DHT22;12780;45.502;9.146;2022-09-01T09:24:39;27.00;99.90
24645;DHT22;12780;45.502;9.146;2022-09-01T09:26:37;26.90;99.90
24645;DHT22;12780;45.502;9.146;2022-09-01T09:29:02;26.80;99.90
24645;DHT22;12780;45.502;9.146;2022-09-01T09:33:59;26.70;99.90
24645;DHT22;12780;45.502;9.146;2022-09-01T09:36:35;26.80;99.90
24645;DHT22;12780;45.502;9.146;2022-09-01T09:39:07;26.70;99.90
24645;DHT22;12780;45.502;9.146;2022-09-01T09:41:34;26.80;99.90
24645;DHT22;12780;45.502;9.146;2022-09-01T09:44:27;26.90;99.90
24645;DHT22;12780;45.502;9.146;2022-09-01T09:46:51;27.10;99.90
24645;DHT22;12780;45.502;9.146;2022-09-01T09:49:32;27.30;99.90
24645;DHT22;12780;45.502;9.146;2022-09-01T09:54:31;27.40;99.90
24645;DHT22;12780;45.502;9.146;2022-09-01T09:59:56;27.60;99.90
24645;DHT22;12780;45.502;9.146;2022-09-01T10:02:38;27.80;99.90
24645;DHT22;12780;45.502;9.146;2022-09-01T10:07:48;28.00;99.90
24645;DHT22;12780;45.502;9.146;2022-09-01T10:10:37;28.20;99.90
24645;DHT22;12780;45.502;9.146;2022-09-01T10:13:13;28.20;99.90
24645;DHT22;12780;45.502;9.146;2022-09-01T10:15:42;28.30;99.90
24645;DHT22;12780;45.502;9.146;2022-09-01T10:18:12;28.40;99.90
24645;DHT22;12780;45.502;9.146;2022-09-01T10:20:53;28.30;99.90
24645;DHT22;12780;45.502;9.146;2022-09-01T10:23:21;28.30;99.90
24645;DHT22;12780;45.502;9.146;2022-09-01T10:25:50;28.30;99.90
24645;DHT22;12780;45.502;9.146;2022-09-01T10:28:20;28.30;99.90
24645;DHT22;12780;45.502;9.146;2022-09-01T10:30:50;28.10;99.90
24645;DHT22;12780;45.502;9.146;2022-09-01T10:33:18;28.00;99.90
24645;DHT22;12780;45.502;9.146;2022-09-01T10:35:47;27.90;99.90
24645;DHT22;12780;45.502;9.146;2022-09-01T10:38:27;27.90;99.90
24645;DHT22;12780;45.502;9.146;2022-09-01T10:40:56;28.00;99.90
24645;DHT22;12780;45.502;9.146;2022-09-01T10:43:49;27.90;99.90
24645;DHT22;12780;45.502;9.146;2022-09-01T10:48:45;28.00;99.90
24645;DHT22;12780;45.502;9.146;2022-09-01T10:53:47;27.90;99.90
24645;DHT22;12780;45.502;9.146;2022-09-01T10:58:45;27.80;99.90
24645;DHT22;12780;45.502;9.146;2022-09-01T11:01:14;27.70;99.90
24645;DHT22;12780;45.502;9.146;2022-09-01T11:03:52;27.60;99.90
24645;DHT22;12780;45.502;9.146;2022-09-01T11:06:51;27.50;99.90
24645;DHT22;12780;45.502;9.146;2022-09-01T11:09:40;27.20;99.90
24645;DHT22;12780;45.502;9.146;2022-09-01T11:14:52;27.00;99.90
24645;DHT22;12780;45.502;9.146;2022-09-01T11:17:53;26.90;99.90
24645;DHT22;12780;45.502;9.146;2022-09-01T11:20:30;26.70;99.90
24645;DHT22;12780;45.502;9.146;2022-09-01T11:30:52;26.00;99.90
24645;DHT22;12780;45.502;9.146;2022-09-01T11:44:54;25.70;99.90
24645;DHT22;12780;45.502;9.146;2022-09-01T11:47:39;25.80;99.90
24645;DHT22;12780;45.502;9.146;2022-09-01T11:52:36;26.10;99.90
24645;DHT22;12780;45.502;9.146;2022-09-01T11:55:04;26.20;99.90
24645;DHT22;12780;45.502;9.146;2022-09-01T11:57:38;26.20;99.90
24645;DHT22;12780;45.502;9.146;2022-09-01T12:00:15;26.30;99.90
24645;DHT22;12780;45.502;9.146;2022-09-01T12:02:50;26.50;99.90
24645;DHT22;12780;45.502;9.146;2022-09-01T12:05:43;26.70;99.90
24645;DHT22;12780;45.502;9.146;2022-09-01T12:08:14;26.80;99.90
24645;DHT22;12780;45.502;9.146;2022-09-01T12:10:42;27.10;99.90
24645;DHT22;12780;45.502;9.146;2022-09-01T12:15:39;27.30;99.90
24645;DHT22;12780;45.502;9.146;2022-09-01T12:20:39;27.50;99.90
24645;DHT22;12780;45.502;9.146;2022-09-01T12:23:18;27.80;99.90
24645;DHT22;12780;45.502;9.146;2022-09-01T12:25:47;27.90;99.90
24645;DHT22;12780;45.502;9.146;2022-09-01T12:28:13;28.00;99.90
24645;DHT22;12780;45.502;9.146;2022-09-01T12:30:40;28.20;99.90
24645;DHT22;12780;45.502;9.146;2022-09-01T12:33:08;28.20;99.90
24645;DHT22;12780;45.502;9.146;2022-09-01T12:35:34;28.20;99.90
24645;DHT22;12780;45.502;9.146;2022-09-01T12:40:49;28.20;99.90
24645;DHT22;12780;45.502;9.146;2022-09-01T12:43:36;28.20;99.90
24645;DHT22;12780;45.502;9.146;2022-09-01T12:46:04;28.30;99.90
24645;DHT22;12780;45.502;9.146;2022-09-01T12:48:36;28.40;99.90
24645;DHT22;12780;45.502;9.146;2022-09-01T12:51:23;28.50;99.90
24645;DHT22;12780;45.502;9.146;2022-09-01T12:53:54;28.70;99.90
24645;DHT22;12780;45.502;9.146;2022-09-01T12:56:33;28.70;99.90
24645;DHT22;12780;45.502;9.146;2022-09-01T12:59:06;28.80;99.90
24645;DHT22;12780;45.502;9.146;2022-09-01T13:01:33;28.90;99.90
24645;DHT22;12780;45.502;9.146;2022-09-01T13:06:35;29.00;99.90
24645;DHT22;12780;45.502;9.146;2022-09-01T13:09:00;29.10;99.90
24645;DHT22;12780;45.502;9.146;2022-09-01T13:11:26;29.20;99.90
24645;DHT22;12780;45.502;9.146;2022-09-01T13:13:52;29.20;99.90
24645;DHT22;12780;45.502;9.146;2022-09-01T13:16:17;29.20;99.90
24645;DHT22;12780;45.502;9.146;2022-09-01T13:18:43;29.10;99.90
24645;DHT22;12780;45.502;9.146;2022-09-01T13:21:09;29.00;99.90
24645;DHT22;12780;45.502;9.146;2022-09-01T13:23:36;29.10;99.90
24645;DHT22;12780;45.502;9.146;2022-09-01T13:26:02;29.00;99.90
24645;DHT22;12780;45.502;9.146;2022-09-01T13:28:29;29.10;99.90
24645;DHT22;12780;45.502;9.146;2022-09-01T13:31:03;29.20;99.90
24645;DHT22;12780;45.502;9.146;2022-09-01T13:33:33;29.00;99.90
24645;DHT22;12780;45.502;9.146;2022-09-01T13:36:00;28.90;99.90
24645;DHT22;12780;45.502;9.146;2022-09-01T13:38:26;28.90;99.90
24645;DHT22;12780;45.502;9.146;2022-09-01T13:40:51;28.90;99.90
24645;DHT22;12780;45.502;9.146;2022-09-01T13:43:19;29.00;99.90
24645;DHT22;12780;45.502;9.146;2022-09-01T13:45:45;29.10;99.90
24645;DHT22;12780;45.502;9.146;2022-09-01T13:48:12;29.10;99.90
24645;DHT22;12780;45.502;9.146;2022-09-01T13:50:39;29.20;99.90
24645;DHT22;12780;45.502;9.146;2022-09-01T13:53:05;29.30;99.90
24645;DHT22;12780;45.502;9.146;2022-09-01T13:55:39;29.30;99.90
24645;DHT22;12780;45.502;9.146;2022-09-01T13:58:05;29.30;99.90
24645;DHT22;12780;45.502;9.146;2022-09-01T14:00:37;29.40;99.90
24645;DHT22;12780;45.502;9.146;2022-09-01T14:03:12;29.40;99.90
24645;DHT22;12780;45.502;9.146;2022-09-01T14:05:41;29.40;99.90
24645;DHT22;12780;45.502;9.146;2022-09-01T14:08:08;29.30;99.90
24645;DHT22;12780;45.502;9.146;2022-09-01T14:10:39;29.20;99.90
24645;DHT22;12780;45.502;9.146;2022-09-01T14:13:06;29.20;99.90
24645;DHT22;12780;45.502;9.146;2022-09-01T14:15:32;29.10;99.90
24645;DHT22;12780;45.502;9.146;2022-09-01T14:17:59;29.10;99.90
24645;DHT22;12780;45.502;9.146;2022-09-01T14:20:31;29.00;99.90
24645;DHT22;12780;45.502;9.146;2022-09-01T14:22:57;28.90;99.90
24645;DHT22;12780;45.502;9.146;2022-09-01T14:25:24;28.90;99.90
24645;DHT22;12780;45.502;9.146;2022-09-01T14:27:50;29.00;99.90
24645;DHT22;12780;45.502;9.146;2022-09-01T14:30:26;29.00;99.90
24645;DHT22;12780;45.502;9.146;2022-09-01T14:32:52;29.00;99.90
24645;DHT22;12780;45.502;9.146;2022-09-01T14:35:20;29.00;99.90
24645;DHT22;12780;45.502;9.146;2022-09-01T14:37:46;28.90;99.90
24645;DHT22;12780;45.502;9.146;2022-09-01T14:40:15;28.70;99.90
24645;DHT22;12780;45.502;9.146;2022-09-01T14:42:43;28.70;99.90
24645;DHT22;12780;45.502;9.146;2022-09-01T14:45:11;28.60;99.90
24645;DHT22;12780;45.502;9.146;2022-09-01T14:47:39;28.60;99.90
24645;DHT22;12780;45.502;9.146;2022-09-01T14:50:05;28.50;99.90
24645;DHT22;12780;45.502;9.146;2022-09-01T14:52:32;28.40;99.90
24645;DHT22;12780;45.502;9.146;2022-09-01T14:54:57;28.40;99.90
24645;DHT22;12780;45.502;9.146;2022-09-01T14:57:23;28.40;99.90
24645;DHT22;12780;45.502;9.146;2022-09-01T14:59:49;28.50;99.90
24645;DHT22;12780;45.502;9.146;2022-09-01T15:02:14;28.50;99.90
24645;DHT22;12780;45.502;9.146;2022-09-01T15:04:40;28.50;99.90
24645;DHT22;12780;45.502;9.146;2022-09-01T15:07:07;28.60;99.90
24645;DHT22;12780;45.502;9.146;2022-09-01T15:09:33;28.50;99.90
24645;DHT22;12780;45.502;9.146;2022-09-01T15:11:59;28.40;99.90
24645;DHT22;12780;45.502;9.146;2022-09-01T15:14:25;28.40;99.90
24645;DHT22;12780;45.502;9.146;2022-09-01T15:16:51;28.40;99.90
24645;DHT22;12780;45.502;9.146;2022-09-01T15:19:17;28.40;99.90
24645;DHT22;12780;45.502;9.146;2022-09-01T15:21:45;28.40;99.90
24645;DHT22;12780;45.502;9.146;2022-09-01T15:24:11;28.30;99.90
24645;DHT22;12780;45.502;9.146;2022-09-01T15:26:37;28.30;99.90
24645;DHT22;12780;45.502;9.146;2022-09-01T15:29:05;28.40;99.90
24645;DHT22;12780;45.502;9.146;2022-09-01T15:31:31;28.40;99.90
24645;DHT22;12780;45.502;9.146;2022-09-01T15:34:00;28.40;99.90
24645;DHT22;12780;45.502;9.146;2022-09-01T15:36:28;28.40;99.90
24645;DHT22;12780;45.502;9.146;2022-09-01T15:38:55;28.30;99.90
24645;DHT22;12780;45.502;9.146;2022-09-01T15:41:26;28.20;99.90
24645;DHT22;12780;45.502;9.146;2022-09-01T15:43:53;28.20;99.90
24645;DHT22;12780;45.502;9.146;2022-09-01T15:46:19;28.10;99.90
24645;DHT22;12780;45.502;9.146;2022-09-01T15:48:46;28.10;99.90
24645;DHT22;12780;45.502;9.146;2022-09-01T15:53:52;28.00;99.90
24645;DHT22;12780;45.502;9.146;2022-09-01T15:56:18;28.10;99.90
24645;DHT22;12780;45.502;9.146;2022-09-01T15:58:45;28.10;99.90
24645;DHT22;12780;45.502;9.146;2022-09-01T16:01:11;28.10;99.90
24645;DHT22;12780;45.502;9.146;2022-09-01T16:03:36;28.10;99.90
24645;DHT22;12780;45.502;9.146;2022-09-01T16:06:02;28.10;99.90
24645;DHT22;12780;45.502;9.146;2022-09-01T16:08:28;28.20;99.90
24645;DHT22;12780;45.502;9.146;2022-09-01T16:10:54;28.20;99.90
24645;DHT22;12780;45.502;9.146;2022-09-01T16:13:20;28.10;99.90
24645;DHT22;12780;45.502;9.146;2022-09-01T16:18:38;27.90;99.90
24645;DHT22;12780;45.502;9.146;2022-09-01T16:24:09;27.70;99.90
24645;DHT22;12780;45.502;9.146;2022-09-01T16:26:36;27.60;99.90
24645;DHT22;12780;45.502;9.146;2022-09-01T16:29:07;27.50;99.90
24645;DHT22;12780;45.502;9.146;2022-09-01T16:31:34;27.50;99.90
24645;DHT22;12780;45.502;9.146;2022-09-01T16:34:09;27.50;99.90
24645;DHT22;12780;45.502;9.146;2022-09-01T16:37:03;27.50;99.90
24645;DHT22;12780;45.502;9.146;2022-09-01T16:44:55;27.40;99.90
24645;DHT22;12780;45.502;9.146;2022-09-01T16:47:40;27.40;99.90
24645;DHT22;12780;45.502;9.146;2022-09-01T16:52:48;27.30;99.90
24645;DHT22;12780;45.502;9.146;2022-09-01T16:55:56;27.30;99.90
24645;DHT22;12780;45.502;9.146;2022-09-01T16:58:31;27.20;99.90
24645;DHT22;12780;45.502;9.146;2022-09-01T17:01:16;27.20;99.90
24645;DHT22;12780;45.502;9.146;2022-09-01T17:06:29;27.20;99.90
24645;DHT22;12780;45.502;9.146;2022-09-01T17:09:11;27.10;99.90
24645;DHT22;12780;45.502;9.146;2022-09-01T17:11:52;27.10;99.90
24645;DHT22;12780;45.502;9.146;2022-09-01T17:14:33;27.00;99.90
24645;DHT22;12780;45.502;9.146;2022-09-01T17:17:10;27.00;99.90
24645;DHT22;12780;45.502;9.146;2022-09-01T17:19:39;27.00;99.90
24645;DHT22;12780;45.502;9.146;2022-09-01T17:22:09;27.00;99.90